sensor_id;sensor_type;location;lat;lon;timestamp;pressure;altitude;pressure_sealevel;temperature;humidity
54194;BME280;40102;50.906;6.972;2023-04-15T00:00:16;100077.63;;;11.29;52.60
54194;BME280;40102;50.906;6.972;2023-04-15T00:02:42;100076.78;;;11.28;52.62
54194;BME280;40102;50.906;6.972;2023-04-15T00:05:08;100082.88;;;11.30;52.58
54194;BME280;40102;50.906;6.972;2023-04-15T00:07:34;100082.13;;;11.28;52.46
54194;BME280;40102;50.906;6.972;2023-04-15T00:10:00;100073.34;;;11.26;52.57
54194;BME280;40102;50.906;6.972;2023-04-15T00:12:26;100085.56;;;11.30;52.50
54194;BME280;40102;50.906;6.972;2023-04-15T00:14:52;100086.72;;;11.26;52.21
54194;BME280;40102;50.906;6.972;2023-04-15T00:17:17;100085.88;;;11.26;52.35
54194;BME280;40102;50.906;6.972;2023-04-15T00:19:43;100082.56;;;11.22;52.54
54194;BME280;40102;50.906;6.972;2023-04-15T00:22:12;100088.44;;;11.27;52.67
54194;BME280;40102;50.906;6.972;2023-04-15T00:24:38;100073.75;;;11.20;52.61
54194;BME280;40102;50.906;6.972;2023-04-15T00:27:03;100086.19;;;11.21;52.60
54194;BME280;40102;50.906;6.972;2023-04-15T00:29:29;100076.44;;;11.20;52.70
54194;BME280;40102;50.906;6.972;2023-04-15T00:31:55;100092.41;;;11.22;52.70
54194;BME280;40102;50.906;6.972;2023-04-15T00:34:21;100084.69;;;11.17;53.03
54194;BME280;40102;50.906;6.972;2023-04-15T00:36:47;100085.09;;;11.11;53.06
54194;BME280;40102;50.906;6.972;2023-04-15T00:39:13;100089.03;;;11.06;53.35
54194;BME280;40102;50.906;6.972;2023-04-15T00:41:38;100088.50;;;11.00;53.85
54194;BME280;40102;50.906;6.972;2023-04-15T00:44:06;100085.06;;;10.98;53.85
54194;BME280;40102;50.906;6.972;2023-04-15T00:46:34;100084.00;;;11.01;53.93
54194;BME280;40102;50.906;6.972;2023-04-15T00:49:02;100087.63;;;11.00;54.05
54194;BME280;40102;50.906;6.972;2023-04-15T00:51:28;100096.97;;;11.07;53.86
54194;BME280;40102;50.906;6.972;2023-04-15T00:53:53;100086.88;;;10.98;54.09
54194;BME280;40102;50.906;6.972;2023-04-15T00:56:20;100077.16;;;10.97;54.31
54194;BME280;40102;50.906;6.972;2023-04-15T00:58:48;100085.72;;;11.02;54.45
54194;BME280;40102;50.906;6.972;2023-04-15T01:01:15;100079.72;;;10.98;54.71
54194;BME280;40102;50.906;6.972;2023-04-15T01:03:41;100083.34;;;10.97;54.70
54194;BME280;40102;50.906;6.972;2023-04-15T01:06:06;100084.31;;;10.96;54.31
54194;BME280;40102;50.906;6.972;2023-04-15T01:08:32;100087.19;;;10.93;54.25
54194;BME280;40102;50.906;6.972;2023-04-15T01:11:00;100086.34;;;10.93;54.08
54194;BME280;40102;50.906;6.972;2023-04-15T01:13:28;100078.53;;;10.90;53.68
54194;BME280;40102;50.906;6.972;2023-04-15T01:15:55;100094.47;;;10.91;53.28
54194;BME280;40102;50.906;6.972;2023-04-15T01:18:21;100082.66;;;10.81;53.24
54194;BME280;40102;50.906;6.972;2023-04-15T01:20:47;100080.81;;;10.69;52.95
54194;BME280;40102;50.906;6.972;2023-04-15T01:23:12;100082.00;;;10.51;53.56
54194;BME280;40102;50.906;6.972;2023-04-15T01:25:38;100079.50;;;10.35;54.20
54194;BME280;40102;50.906;6.972;2023-04-15T01:28:04;100084.50;;;10.13;54.58
54194;BME280;40102;50.906;6.972;2023-04-15T01:30:33;100089.94;;;9.97;55.85
54194;BME280;40102;50.906;6.972;2023-04-15T01:32:59;100078.41;;;9.82;56.62
54194;BME280;40102;50.906;6.972;2023-04-15T01:35:24;100083.94;;;9.65;56.75
54194;BME280;40102;50.906;6.972;2023-04-15T01:37:49;100097.84;;;9.41;57.64
54194;BME280;40102;50.906;6.972;2023-04-15T01:40:15;100090.91;;;9.09;59.07
54194;BME280;40102;50.906;6.972;2023-04-15T01:42:40;100085.47;;;8.81;60.09
54194;BME280;40102;50.906;6.972;2023-04-15T01:45:06;100078.00;;;8.71;61.15
54194;BME280;40102;50.906;6.972;2023-04-15T01:47:32;100077.25;;;8.69;61.42
54194;BME280;40102;50.906;6.972;2023-04-15T01:49:57;100075.94;;;8.76;61.47
54194;BME280;40102;50.906;6.972;2023-04-15T01:52:25;100086.97;;;8.70;61.65
54194;BME280;40102;50.906;6.972;2023-04-15T01:54:50;100081.91;;;8.50;62.16
54194;BME280;40102;50.906;6.972;2023-04-15T01:57:16;100085.53;;;8.49;63.11
54194;BME280;40102;50.906;6.972;2023-04-15T01:59:41;100077.34;;;8.52;62.47
54194;BME280;40102;50.906;6.972;2023-04-15T02:02:06;100079.94;;;8.54;62.40
54194;BME280;40102;50.906;6.972;2023-04-15T02:04:32;100065.50;;;8.42;62.34
54194;BME280;40102;50.906;6.972;2023-04-15T02:06:58;100075.78;;;8.32;63.16
54194;BME280;40102;50.906;6.972;2023-04-15T02:09:23;100075.03;;;8.15;63.87
54194;BME280;40102;50.906;6.972;2023-04-15T02:11:50;100077.00;;;8.11;64.49
54194;BME280;40102;50.906;6.972;2023-04-15T02:14:16;100077.00;;;8.27;64.63
54194;BME280;40102;50.906;6.972;2023-04-15T02:16:41;100077.03;;;8.42;63.38
54194;BME280;40102;50.906;6.972;2023-04-15T02:19:06;100088.13;;;8.35;62.83
54194;BME280;40102;50.906;6.972;2023-04-15T02:21:32;100099.34;;;8.24;63.25
54194;BME280;40102;50.906;6.972;2023-04-15T02:23:59;100079.66;;;7.95;63.78
54194;BME280;40102;50.906;6.972;2023-04-15T02:26:24;100080.56;;;7.78;64.35
54194;BME280;40102;50.906;6.972;2023-04-15T02:28:50;100095.00;;;7.74;65.14
54194;BME280;40102;50.906;6.972;2023-04-15T02:31:15;100087.41;;;7.67;65.35
54194;BME280;40102;50.906;6.972;2023-04-15T02:33:41;100082.44;;;7.76;65.71
54194;BME280;40102;50.906;6.972;2023-04-15T02:36:06;100094.44;;;8.01;65.27
54194;BME280;40102;50.906;6.972;2023-04-15T02:38:32;100102.44;;;8.32;64.23
54194;BME280;40102;50.906;6.972;2023-04-15T02:40:57;100086.47;;;8.48;63.75
54194;BME280;40102;50.906;6.972;2023-04-15T02:43:23;100094.97;;;8.55;62.95
54194;BME280;40102;50.906;6.972;2023-04-15T02:45:48;100106.06;;;8.63;62.50
54194;BME280;40102;50.906;6.972;2023-04-15T02:48:14;100097.91;;;8.50;61.87
54194;BME280;40102;50.906;6.972;2023-04-15T02:50:42;100098.91;;;8.32;62.32
54194;BME280;40102;50.906;6.972;2023-04-15T02:53:07;100099.16;;;8.11;63.04
54194;BME280;40102;50.906;6.972;2023-04-15T02:55:32;100114.88;;;8.00;63.77
54194;BME280;40102;50.906;6.972;2023-04-15T02:57:58;100110.38;;;7.85;64.59
54194;BME280;40102;50.906;6.972;2023-04-15T03:00:25;100122.50;;;7.91;65.07
54194;BME280;40102;50.906;6.972;2023-04-15T03:02:50;100119.38;;;8.16;64.99
54194;BME280;40102;50.906;6.972;2023-04-15T03:05:20;100118.72;;;8.43;64.14
54194;BME280;40102;50.906;6.972;2023-04-15T03:07:47;100104.94;;;8.67;62.86
54194;BME280;40102;50.906;6.972;2023-04-15T03:10:13;100099.53;;;8.68;61.93
54194;BME280;40102;50.906;6.972;2023-04-15T03:12:38;100117.84;;;8.43;62.56
54194;BME280;40102;50.906;6.972;2023-04-15T03:15:05;100120.19;;;8.00;64.34
54194;BME280;40102;50.906;6.972;2023-04-15T03:17:30;100108.88;;;7.64;65.43
54194;BME280;40102;50.906;6.972;2023-04-15T03:19:56;100102.25;;;7.38;66.35
54194;BME280;40102;50.906;6.972;2023-04-15T03:22:21;100110.72;;;7.29;66.40
54194;BME280;40102;50.906;6.972;2023-04-15T03:24:47;100125.75;;;7.30;66.56
54194;BME280;40102;50.906;6.972;2023-04-15T03:27:12;100124.41;;;7.21;67.08
54194;BME280;40102;50.906;6.972;2023-04-15T03:29:37;100124.50;;;7.20;67.43
54194;BME280;40102;50.906;6.972;2023-04-15T03:32:03;100115.97;;;7.13;67.24
54194;BME280;40102;50.906;6.972;2023-04-15T03:34:28;100122.00;;;7.17;67.23
54194;BME280;40102;50.906;6.972;2023-04-15T03:36:54;100113.78;;;7.04;67.69
54194;BME280;40102;50.906;6.972;2023-04-15T03:39:20;100124.31;;;6.88;68.89
54194;BME280;40102;50.906;6.972;2023-04-15T03:41:45;100129.56;;;6.90;70.08
54194;BME280;40102;50.906;6.972;2023-04-15T03:44:11;100136.63;;;7.25;70.34
54194;BME280;40102;50.906;6.972;2023-04-15T03:46:36;100121.56;;;7.59;68.80
54194;BME280;40102;50.906;6.972;2023-04-15T03:49:02;100127.59;;;7.95;66.87
54194;BME280;40102;50.906;6.972;2023-04-15T03:51:27;100140.69;;;8.16;65.04
54194;BME280;40102;50.906;6.972;2023-04-15T03:53:52;100129.47;;;7.93;65.47
54194;BME280;40102;50.906;6.972;2023-04-15T03:56:18;100143.28;;;7.84;65.59
54194;BME280;40102;50.906;6.972;2023-04-15T03:58:43;100132.00;;;7.79;66.46
54194;BME280;40102;50.906;6.972;2023-04-15T04:01:08;100144.16;;;8.00;66.61
54194;BME280;40102;50.906;6.972;2023-04-15T04:03:33;100137.66;;;8.22;65.53
54194;BME280;40102;50.906;6.972;2023-04-15T04:05:59;100136.09;;;8.35;64.35
54194;BME280;40102;50.906;6.972;2023-04-15T04:08:24;100136.16;;;8.49;64.17
54194;BME280;40102;50.906;6.972;2023-04-15T04:10:51;100141.50;;;8.65;63.45
54194;BME280;40102;50.906;6.972;2023-04-15T04:13:16;100133.06;;;8.57;62.70
54194;BME280;40102;50.906;6.972;2023-04-15T04:15:42;100151.13;;;8.36;63.66
54194;BME280;40102;50.906;6.972;2023-04-15T04:18:07;100146.66;;;8.03;64.81
54194;BME280;40102;50.906;6.972;2023-04-15T04:20:32;100136.88;;;7.71;66.35
54194;BME280;40102;50.906;6.972;2023-04-15T04:22:58;100153.59;;;7.57;67.38
54194;BME280;40102;50.906;6.972;2023-04-15T04:25:23;100148.63;;;7.67;68.42
54194;BME280;40102;50.906;6.972;2023-04-15T04:27:49;100142.09;;;7.90;67.76
54194;BME280;40102;50.906;6.972;2023-04-15T04:30:14;100146.78;;;8.18;65.85
54194;BME280;40102;50.906;6.972;2023-04-15T04:32:40;100141.31;;;8.36;64.62
54194;BME280;40102;50.906;6.972;2023-04-15T04:35:05;100149.84;;;8.59;63.49
54194;BME280;40102;50.906;6.972;2023-04-15T04:37:31;100137.13;;;8.64;62.61
54194;BME280;40102;50.906;6.972;2023-04-15T04:39:56;100141.31;;;8.68;62.64
54194;BME280;40102;50.906;6.972;2023-04-15T04:42:22;100160.75;;;8.86;62.10
54194;BME280;40102;50.906;6.972;2023-04-15T04:44:47;100161.44;;;8.89;61.52
54194;BME280;40102;50.906;6.972;2023-04-15T04:47:12;100177.41;;;9.05;61.33
54194;BME280;40102;50.906;6.972;2023-04-15T04:49:38;100168.44;;;9.06;61.04
54194;BME280;40102;50.906;6.972;2023-04-15T04:52:03;100163.88;;;9.08;60.56
54194;BME280;40102;50.906;6.972;2023-04-15T04:54:28;100183.75;;;9.18;60.44
54194;BME280;40102;50.906;6.972;2023-04-15T04:56:55;100175.56;;;9.21;60.29
54194;BME280;40102;50.906;6.972;2023-04-15T04:59:22;100168.97;;;9.13;60.22
54194;BME280;40102;50.906;6.972;2023-04-15T05:01:47;100177.31;;;9.06;60.23
54194;BME280;40102;50.906;6.972;2023-04-15T05:04:13;100178.03;;;8.94;60.64
54194;BME280;40102;50.906;6.972;2023-04-15T05:06:38;100188.59;;;8.96;61.08
54194;BME280;40102;50.906;6.972;2023-04-15T05:09:03;100187.47;;;9.00;60.84
54194;BME280;40102;50.906;6.972;2023-04-15T05:11:29;100181.19;;;9.01;60.83
54194;BME280;40102;50.906;6.972;2023-04-15T05:13:54;100180.94;;;9.05;60.52
54194;BME280;40102;50.906;6.972;2023-04-15T05:16:20;100195.72;;;9.11;60.48
54194;BME280;40102;50.906;6.972;2023-04-15T05:18:45;100184.38;;;9.07;60.48
54194;BME280;40102;50.906;6.972;2023-04-15T05:21:11;100184.28;;;9.09;60.27
54194;BME280;40102;50.906;6.972;2023-04-15T05:23:36;100183.44;;;9.08;60.36
54194;BME280;40102;50.906;6.972;2023-04-15T05:26:02;100200.72;;;9.17;60.21
54194;BME280;40102;50.906;6.972;2023-04-15T05:28:27;100186.88;;;9.11;60.13
54194;BME280;40102;50.906;6.972;2023-04-15T05:30:53;100182.66;;;9.06;59.93
54194;BME280;40102;50.906;6.972;2023-04-15T05:33:18;100185.31;;;9.06;59.56
54194;BME280;40102;50.906;6.972;2023-04-15T05:35:44;100178.63;;;8.99;59.24
54194;BME280;40102;50.906;6.972;2023-04-15T05:38:09;100191.09;;;8.99;59.44
54194;BME280;40102;50.906;6.972;2023-04-15T05:40:35;100196.44;;;8.99;59.48
54194;BME280;40102;50.906;6.972;2023-04-15T05:43:00;100205.03;;;9.04;59.36
54194;BME280;40102;50.906;6.972;2023-04-15T05:45:26;100212.69;;;9.10;59.19
54194;BME280;40102;50.906;6.972;2023-04-15T05:47:51;100222.06;;;9.17;59.08
54194;BME280;40102;50.906;6.972;2023-04-15T05:50:18;100230.66;;;9.22;59.06
54194;BME280;40102;50.906;6.972;2023-04-15T05:52:43;100241.16;;;9.25;59.00
54194;BME280;40102;50.906;6.972;2023-04-15T05:55:10;100244.59;;;9.27;59.44
54194;BME280;40102;50.906;6.972;2023-04-15T05:57:36;100250.69;;;9.29;59.51
54194;BME280;40102;50.906;6.972;2023-04-15T06:00:02;100234.19;;;9.23;59.43
54194;BME280;40102;50.906;6.972;2023-04-15T06:02:29;100237.34;;;9.29;59.77
54194;BME280;40102;50.906;6.972;2023-04-15T06:04:55;100239.75;;;9.34;59.55
54194;BME280;40102;50.906;6.972;2023-04-15T06:07:22;100244.91;;;9.37;59.58
54194;BME280;40102;50.906;6.972;2023-04-15T06:09:47;100230.81;;;9.35;59.46
54194;BME280;40102;50.906;6.972;2023-04-15T06:12:12;100239.31;;;9.41;59.48
54194;BME280;40102;50.906;6.972;2023-04-15T06:14:38;100248.69;;;9.49;59.52
54194;BME280;40102;50.906;6.972;2023-04-15T06:17:04;100243.69;;;9.43;59.41
54194;BME280;40102;50.906;6.972;2023-04-15T06:19:32;100249.63;;;9.48;59.52
54194;BME280;40102;50.906;6.972;2023-04-15T06:21:58;100251.16;;;9.52;59.46
54194;BME280;40102;50.906;6.972;2023-04-15T06:24:24;100255.38;;;9.56;59.43
54194;BME280;40102;50.906;6.972;2023-04-15T06:26:49;100259.41;;;9.63;59.36
54194;BME280;40102;50.906;6.972;2023-04-15T06:29:15;100248.63;;;9.64;59.10
54194;BME280;40102;50.906;6.972;2023-04-15T06:31:40;100264.47;;;9.67;58.91
54194;BME280;40102;50.906;6.972;2023-04-15T06:34:06;100264.56;;;9.66;59.10
54194;BME280;40102;50.906;6.972;2023-04-15T06:36:31;100258.47;;;9.64;59.33
54194;BME280;40102;50.906;6.972;2023-04-15T06:38:56;100275.06;;;9.69;59.34
54194;BME280;40102;50.906;6.972;2023-04-15T06:41:22;100257.31;;;9.68;59.38
54194;BME280;40102;50.906;6.972;2023-04-15T06:43:47;100265.94;;;9.73;59.23
54194;BME280;40102;50.906;6.972;2023-04-15T06:46:13;100278.81;;;9.81;59.24
54194;BME280;40102;50.906;6.972;2023-04-15T06:48:38;100259.44;;;9.77;59.04
54194;BME280;40102;50.906;6.972;2023-04-15T06:51:04;100269.69;;;9.85;58.90
54194;BME280;40102;50.906;6.972;2023-04-15T06:53:29;100271.31;;;9.87;59.06
54194;BME280;40102;50.906;6.972;2023-04-15T06:55:55;100270.09;;;9.93;58.79
54194;BME280;40102;50.906;6.972;2023-04-15T06:58:21;100282.56;;;10.22;64.25
54194;BME280;40102;50.906;6.972;2023-04-15T07:00:46;100281.13;;;10.45;64.98
54194;BME280;40102;50.906;6.972;2023-04-15T07:03:12;100272.06;;;10.48;61.90
54194;BME280;40102;50.906;6.972;2023-04-15T07:05:38;100283.41;;;10.51;60.02
54194;BME280;40102;50.906;6.972;2023-04-15T07:08:04;100297.56;;;10.53;59.10
54194;BME280;40102;50.906;6.972;2023-04-15T07:10:29;100301.38;;;10.49;58.23
54194;BME280;40102;50.906;6.972;2023-04-15T07:12:55;100292.00;;;10.42;57.84
54194;BME280;40102;50.906;6.972;2023-04-15T07:15:21;100301.66;;;10.45;57.77
54194;BME280;40102;50.906;6.972;2023-04-15T07:17:47;100297.06;;;10.47;57.45
54194;BME280;40102;50.906;6.972;2023-04-15T07:20:13;100302.41;;;10.47;57.58
54194;BME280;40102;50.906;6.972;2023-04-15T07:22:38;100310.84;;;10.55;57.79
54194;BME280;40102;50.906;6.972;2023-04-15T07:25:04;100306.44;;;10.54;57.97
54194;BME280;40102;50.906;6.972;2023-04-15T07:27:30;100311.50;;;10.58;57.53
54194;BME280;40102;50.906;6.972;2023-04-15T07:29:56;100294.88;;;10.53;57.67
54194;BME280;40102;50.906;6.972;2023-04-15T07:32:22;100310.16;;;10.65;57.88
54194;BME280;40102;50.906;6.972;2023-04-15T07:34:47;100314.56;;;10.66;57.96
54194;BME280;40102;50.906;6.972;2023-04-15T07:37:12;100305.69;;;10.66;57.78
54194;BME280;40102;50.906;6.972;2023-04-15T07:39:38;100308.25;;;10.67;57.59
54194;BME280;40102;50.906;6.972;2023-04-15T07:42:03;100328.03;;;10.79;58.06
54194;BME280;40102;50.906;6.972;2023-04-15T07:44:28;100314.84;;;10.76;58.36
54194;BME280;40102;50.906;6.972;2023-04-15T07:46:55;100316.66;;;10.76;58.54
54194;BME280;40102;50.906;6.972;2023-04-15T07:49:20;100319.63;;;10.85;58.73
54194;BME280;40102;50.906;6.972;2023-04-15T07:51:46;100320.66;;;10.83;59.05
54194;BME280;40102;50.906;6.972;2023-04-15T07:54:11;100323.06;;;10.87;59.08
54194;BME280;40102;50.906;6.972;2023-04-15T07:56:37;100320.28;;;10.89;59.11
54194;BME280;40102;50.906;6.972;2023-04-15T07:59:02;100323.81;;;10.89;59.28
54194;BME280;40102;50.906;6.972;2023-04-15T08:01:30;100326.88;;;10.97;59.05
54194;BME280;40102;50.906;6.972;2023-04-15T08:03:55;100326.97;;;10.96;59.05
54194;BME280;40102;50.906;6.972;2023-04-15T08:06:21;100327.63;;;10.99;58.88
54194;BME280;40102;50.906;6.972;2023-04-15T08:08:47;100330.00;;;11.04;59.07
54194;BME280;40102;50.906;6.972;2023-04-15T08:11:12;100337.75;;;11.09;58.66
54194;BME280;40102;50.906;6.972;2023-04-15T08:13:37;100337.75;;;11.09;58.58
54194;BME280;40102;50.906;6.972;2023-04-15T08:16:19;100348.72;;;11.18;58.64
54194;BME280;40102;50.906;6.972;2023-04-15T08:18:46;100332.09;;;11.13;58.70
54194;BME280;40102;50.906;6.972;2023-04-15T08:21:13;100347.97;;;11.16;58.44
54194;BME280;40102;50.906;6.972;2023-04-15T08:23:38;100344.31;;;11.17;58.29
54194;BME280;40102;50.906;6.972;2023-04-15T08:26:04;100356.25;;;11.26;58.01
54194;BME280;40102;50.906;6.972;2023-04-15T08:28:29;100348.25;;;11.26;57.50
54194;BME280;40102;50.906;6.972;2023-04-15T08:30:55;100359.81;;;11.26;57.03
54194;BME280;40102;50.906;6.972;2023-04-15T08:33:21;100356.38;;;11.24;56.24
54194;BME280;40102;50.906;6.972;2023-04-15T08:35:47;100357.03;;;11.28;55.57
54194;BME280;40102;50.906;6.972;2023-04-15T08:38:13;100354.34;;;11.28;55.46
54194;BME280;40102;50.906;6.972;2023-04-15T08:40:43;100364.66;;;11.34;55.09
54194;BME280;40102;50.906;6.972;2023-04-15T08:43:11;100368.97;;;11.36;54.71
54194;BME280;40102;50.906;6.972;2023-04-15T08:45:38;100372.59;;;11.35;54.16
54194;BME280;40102;50.906;6.972;2023-04-15T08:48:04;100370.69;;;11.38;53.96
54194;BME280;40102;50.906;6.972;2023-04-15T08:50:31;100375.19;;;11.37;53.62
54194;BME280;40102;50.906;6.972;2023-04-15T08:53:00;100380.25;;;11.42;53.41
54194;BME280;40102;50.906;6.972;2023-04-15T08:55:29;100372.41;;;11.39;53.47
54194;BME280;40102;50.906;6.972;2023-04-15T08:57:55;100371.44;;;11.40;53.91
54194;BME280;40102;50.906;6.972;2023-04-15T09:00:21;100377.38;;;11.45;53.62
54194;BME280;40102;50.906;6.972;2023-04-15T09:02:47;100382.44;;;11.49;53.61
54194;BME280;40102;50.906;6.972;2023-04-15T09:05:12;100374.50;;;11.48;53.62
54194;BME280;40102;50.906;6.972;2023-04-15T09:07:38;100385.97;;;11.50;53.83
54194;BME280;40102;50.906;6.972;2023-04-15T09:10:03;100398.84;;;11.57;53.74
54194;BME280;40102;50.906;6.972;2023-04-15T09:12:29;100390.81;;;11.57;53.47
54194;BME280;40102;50.906;6.972;2023-04-15T09:14:56;100391.13;;;11.53;53.24
54194;BME280;40102;50.906;6.972;2023-04-15T09:17:21;100390.06;;;11.55;52.65
54194;BME280;40102;50.906;6.972;2023-04-15T09:19:49;100391.88;;;11.55;52.01
54194;BME280;40102;50.906;6.972;2023-04-15T09:22:15;100408.22;;;11.64;51.91
54194;BME280;40102;50.906;6.972;2023-04-15T09:24:40;100402.09;;;11.62;51.87
54194;BME280;40102;50.906;6.972;2023-04-15T09:27:07;100420.25;;;11.72;52.13
54194;BME280;40102;50.906;6.972;2023-04-15T09:29:33;100407.06;;;11.68;52.15
54194;BME280;40102;50.906;6.972;2023-04-15T09:32:12;100426.28;;;11.75;52.23
54194;BME280;40102;50.906;6.972;2023-04-15T09:34:38;100419.41;;;11.71;52.42
54194;BME280;40102;50.906;6.972;2023-04-15T09:37:03;100432.50;;;11.76;52.16
54194;BME280;40102;50.906;6.972;2023-04-15T09:39:49;100436.81;;;11.78;52.58
54194;BME280;40102;50.906;6.972;2023-04-15T09:42:15;100422.94;;;11.72;52.41
54194;BME280;40102;50.906;6.972;2023-04-15T09:44:48;100435.16;;;11.76;51.83
54194;BME280;40102;50.906;6.972;2023-04-15T09:47:29;100430.78;;;11.75;52.22
54194;BME280;40102;50.906;6.972;2023-04-15T09:49:59;100431.47;;;11.78;51.89
54194;BME280;40102;50.906;6.972;2023-04-15T09:52:25;100425.50;;;11.73;52.10
54194;BME280;40102;50.906;6.972;2023-04-15T09:54:55;100423.50;;;11.77;52.10
54194;BME280;40102;50.906;6.972;2023-04-15T09:57:21;100433.09;;;11.81;52.19
54194;BME280;40102;50.906;6.972;2023-04-15T09:59:47;100438.16;;;11.85;52.32
54194;BME280;40102;50.906;6.972;2023-04-15T10:02:13;100434.59;;;11.85;52.09
54194;BME280;40102;50.906;6.972;2023-04-15T10:04:40;100440.13;;;11.96;52.45
54194;BME280;40102;50.906;6.972;2023-04-15T10:07:07;100451.69;;;11.96;52.58
54194;BME280;40102;50.906;6.972;2023-04-15T10:09:35;100443.00;;;11.93;52.61
54194;BME280;40102;50.906;6.972;2023-04-15T10:12:02;100439.66;;;11.89;52.53
54194;BME280;40102;50.906;6.972;2023-04-15T10:14:32;100443.09;;;11.91;52.57
54194;BME280;40102;50.906;6.972;2023-04-15T10:17:00;100455.81;;;12.02;52.75
54194;BME280;40102;50.906;6.972;2023-04-15T10:19:26;100457.41;;;12.05;52.88
54194;BME280;40102;50.906;6.972;2023-04-15T10:21:54;100452.25;;;12.02;52.94
54194;BME280;40102;50.906;6.972;2023-04-15T10:24:20;100456.34;;;12.07;53.04
54194;BME280;40102;50.906;6.972;2023-04-15T10:26:46;100462.56;;;12.08;53.40
54194;BME280;40102;50.906;6.972;2023-04-15T10:29:12;100460.97;;;12.05;53.20
54194;BME280;40102;50.906;6.972;2023-04-15T10:31:38;100454.75;;;12.05;53.58
54194;BME280;40102;50.906;6.972;2023-04-15T10:34:05;100456.56;;;12.04;53.79
54194;BME280;40102;50.906;6.972;2023-04-15T10:36:31;100457.88;;;12.11;54.15
54194;BME280;40102;50.906;6.972;2023-04-15T10:38:57;100460.00;;;12.06;54.66
54194;BME280;40102;50.906;6.972;2023-04-15T10:41:24;100465.47;;;12.05;54.68
54194;BME280;40102;50.906;6.972;2023-04-15T10:44:01;100473.09;;;12.11;54.60
54194;BME280;40102;50.906;6.972;2023-04-15T10:46:40;100468.69;;;12.10;55.21
54194;BME280;40102;50.906;6.972;2023-04-15T10:49:16;100465.06;;;12.11;55.12
54194;BME280;40102;50.906;6.972;2023-04-15T10:51:54;100473.75;;;12.14;55.01
54194;BME280;40102;50.906;6.972;2023-04-15T10:56:51;100476.03;;;12.20;55.08
54194;BME280;40102;50.906;6.972;2023-04-15T10:59:16;100474.63;;;12.15;55.31
54194;BME280;40102;50.906;6.972;2023-04-15T11:01:56;100465.41;;;12.19;55.09
54194;BME280;40102;50.906;6.972;2023-04-15T11:04:56;100483.56;;;12.28;54.84
54194;BME280;40102;50.906;6.972;2023-04-15T11:07:56;100472.84;;;12.28;54.81
54194;BME280;40102;50.906;6.972;2023-04-15T11:13:00;100475.72;;;12.25;54.27
54194;BME280;40102;50.906;6.972;2023-04-15T11:17:55;100481.66;;;12.30;54.49
54194;BME280;40102;50.906;6.972;2023-04-15T11:20:22;100497.03;;;12.41;54.67
54194;BME280;40102;50.906;6.972;2023-04-15T11:22:52;100492.53;;;12.41;54.72
54194;BME280;40102;50.906;6.972;2023-04-15T11:27:47;100498.69;;;12.56;54.37
54194;BME280;40102;50.906;6.972;2023-04-15T11:30:22;100504.91;;;12.56;54.64
54194;BME280;40102;50.906;6.972;2023-04-15T11:32:49;100506.72;;;12.56;54.32
54194;BME280;40102;50.906;6.972;2023-04-15T11:35:18;100503.50;;;12.51;54.68
54194;BME280;40102;50.906;6.972;2023-04-15T11:37:48;100503.69;;;12.48;54.89
54194;BME280;40102;50.906;6.972;2023-04-15T11:40:14;100503.69;;;12.48;54.92
54194;BME280;40102;50.906;6.972;2023-04-15T11:42:42;100513.66;;;12.46;54.72
54194;BME280;40102;50.906;6.972;2023-04-15T11:45:08;100518.38;;;12.42;54.73
54194;BME280;40102;50.906;6.972;2023-04-15T11:47:35;100525.16;;;12.48;55.49
54194;BME280;40102;50.906;6.972;2023-04-15T11:50:20;100529.56;;;12.49;55.66
54194;BME280;40102;50.906;6.972;2023-04-15T11:52:59;100534.81;;;12.50;55.85
54194;BME280;40102;50.906;6.972;2023-04-15T11:55:25;100528.91;;;12.45;55.97
54194;BME280;40102;50.906;6.972;2023-04-15T12:00:45;100546.06;;;12.43;55.57
54194;BME280;40102;50.906;6.972;2023-04-15T12:11:17;100547.81;;;12.29;56.19
54194;BME280;40102;50.906;6.972;2023-04-15T12:13:44;100555.13;;;12.27;56.05
54194;BME280;40102;50.906;6.972;2023-04-15T12:16:10;100561.91;;;12.33;56.23
54194;BME280;40102;50.906;6.972;2023-04-15T12:18:38;100570.81;;;12.33;56.71
54194;BME280;40102;50.906;6.972;2023-04-15T12:21:13;100555.69;;;12.32;58.70
54194;BME280;40102;50.906;6.972;2023-04-15T12:23:47;100573.34;;;12.49;57.79
54194;BME280;40102;50.906;6.972;2023-04-15T12:26:13;100574.09;;;12.51;57.77
54194;BME280;40102;50.906;6.972;2023-04-15T12:28:40;100572.38;;;12.50;57.32
54194;BME280;40102;50.906;6.972;2023-04-15T12:31:09;100574.09;;;12.51;57.70
54194;BME280;40102;50.906;6.972;2023-04-15T12:33:34;100578.72;;;12.49;57.82
54194;BME280;40102;50.906;6.972;2023-04-15T12:36:00;100590.81;;;12.42;57.70
54194;BME280;40102;50.906;6.972;2023-04-15T12:38:25;100593.50;;;12.42;57.92
54194;BME280;40102;50.906;6.972;2023-04-15T12:40:51;100606.34;;;12.37;58.44
54194;BME280;40102;50.906;6.972;2023-04-15T12:43:16;100599.66;;;12.30;58.80
54194;BME280;40102;50.906;6.972;2023-04-15T12:45:41;100608.09;;;12.24;58.67
54194;BME280;40102;50.906;6.972;2023-04-15T12:48:06;100611.91;;;12.20;59.01
54194;BME280;40102;50.906;6.972;2023-04-15T12:50:34;100623.59;;;12.19;58.90
54194;BME280;40102;50.906;6.972;2023-04-15T12:52:59;100633.38;;;12.20;59.27
54194;BME280;40102;50.906;6.972;2023-04-15T12:55:24;100630.31;;;12.12;58.95
54194;BME280;40102;50.906;6.972;2023-04-15T12:57:50;100628.50;;;12.12;59.38
54194;BME280;40102;50.906;6.972;2023-04-15T13:00:15;100630.31;;;12.12;59.64
54194;BME280;40102;50.906;6.972;2023-04-15T13:02:42;100633.97;;;12.11;59.83
54194;BME280;40102;50.906;6.972;2023-04-15T13:05:08;100638.25;;;12.13;60.00
54194;BME280;40102;50.906;6.972;2023-04-15T13:07:33;100653.41;;;12.14;60.14
54194;BME280;40102;50.906;6.972;2023-04-15T13:09:58;100664.97;;;12.15;60.45
54194;BME280;40102;50.906;6.972;2023-04-15T13:12:25;100650.44;;;12.05;60.54